createdAt,value
2023-02-23T00:00:45.026Z,4.97
2023-02-23T00:03:22.469Z,5.32
2023-02-23T00:06:13.429Z,4.13
2023-02-23T00:08:44.359Z,4.82
2023-02-23T00:11:14.813Z,6.50
2023-02-23T00:13:53.048Z,4.82
2023-02-23T00:16:25.585Z,6.40
2023-02-23T00:19:02.711Z,4.65
2023-02-23T00:21:40.526Z,6.35
2023-02-23T00:24:33.761Z,5.90
2023-02-23T00:27:07.016Z,5.95
2023-02-23T00:29:50.086Z,5.75
2023-02-23T00:32:22.669Z,6.32
2023-02-23T00:34:54.045Z,5.93
2023-02-23T00:37:23.861Z,5.75
2023-02-23T00:39:53.182Z,5.10
2023-02-23T00:42:25.117Z,5.22
2023-02-23T00:44:59.447Z,4.25
2023-02-23T00:47:35.917Z,4.28
2023-02-23T00:50:14.993Z,5.10
2023-02-23T00:52:52.867Z,5.65
2023-02-23T00:55:42.880Z,4.75
2023-02-23T00:58:18.796Z,7.32
2023-02-23T01:00:57.617Z,5.82
2023-02-23T01:03:27.323Z,6.55
2023-02-23T01:06:05.556Z,5.88
2023-02-23T01:08:35.394Z,5.95
2023-02-23T01:11:21.567Z,5.78
2023-02-23T01:13:53.697Z,5.72
2023-02-23T01:16:35.964Z,5.57
2023-02-23T01:19:16.430Z,5.30
2023-02-23T01:21:48.583Z,4.95
2023-02-23T01:24:19.331Z,4.53
2023-02-23T01:26:52.600Z,4.45
2023-02-23T01:29:28.966Z,4.85
2023-02-23T01:32:07.508Z,4.03
2023-02-23T01:34:37.157Z,5.10
2023-02-23T01:37:09.764Z,4.07
2023-02-23T01:39:38.912Z,4.20
2023-02-23T01:42:14.615Z,4.05
2023-02-23T01:45:23.899Z,4.45
2023-02-23T01:48:03.788Z,3.53
2023-02-23T01:50:40.058Z,4.22
2023-02-23T01:53:15.670Z,4.15
2023-02-23T01:55:50.006Z,4.60
2023-02-23T01:58:31.926Z,4.32
2023-02-23T02:01:09.988Z,4.95
2023-02-23T02:03:45.728Z,4.82
2023-02-23T02:06:18.868Z,4.05
2023-02-23T02:08:56.222Z,4.00
2023-02-23T02:11:36.709Z,3.97
2023-02-23T02:14:13.069Z,4.28
2023-02-23T02:17:02.810Z,4.38
2023-02-23T02:20:01.067Z,3.85
2023-02-23T02:22:46.658Z,4.45
2023-02-23T02:25:33.016Z,4.20
2023-02-23T02:28:45.846Z,4.25
2023-02-23T02:31:55.137Z,4.20
2023-02-23T02:34:59.122Z,4.10
2023-02-23T02:38:02.063Z,4.63
2023-02-23T02:40:58.615Z,4.65
2023-02-23T02:43:40.719Z,4.78
2023-02-23T02:46:23.687Z,3.75
2023-02-23T02:49:06.684Z,4.15
2023-02-23T02:51:43.175Z,4.38
2023-02-23T02:54:30.564Z,4.90
2023-02-23T02:57:09.826Z,4.72
2023-02-23T03:00:10.629Z,5.15
2023-02-23T03:02:59.766Z,4.60
2023-02-23T03:05:53.568Z,4.00
2023-02-23T03:08:54.908Z,4.75
2023-02-23T03:11:59.510Z,4.63
2023-02-23T03:14:53.006Z,4.25
2023-02-23T03:17:57.593Z,4.53
2023-02-23T03:21:02.095Z,4.82
2023-02-23T03:24:13.032Z,4.90
2023-02-23T03:27:15.925Z,5.13
2023-02-23T03:30:22.917Z,5.57
2023-02-23T03:33:12.997Z,5.57
2023-02-23T03:36:10.572Z,5.05
2023-02-23T03:39:01.876Z,4.28
2023-02-23T03:41:49.799Z,13.15
2023-02-23T03:44:50.433Z,9.30
2023-02-23T03:47:41.714Z,9.45
2023-02-23T03:50:50.765Z,9.98
2023-02-23T03:53:46.832Z,9.63
2023-02-23T03:56:39.119Z,10.18
2023-02-23T03:59:28.006Z,8.15
2023-02-23T04:02:23.002Z,6.28
2023-02-23T04:05:17.861Z,7.57
2023-02-23T04:08:07.956Z,5.82
2023-02-23T04:10:58.773Z,9.70
2023-02-23T04:13:30.912Z,8.35
2023-02-23T04:16:01.673Z,6.40
2023-02-23T04:18:36.201Z,7.32
2023-02-23T04:21:11.042Z,8.60
2023-02-23T04:23:47.551Z,8.73
2023-02-23T04:26:16.102Z,8.27
2023-02-23T04:28:50.768Z,8.70
2023-02-23T04:31:27.300Z,9.35
2023-02-23T04:34:02.972Z,11.00
2023-02-23T04:36:36.836Z,8.25
2023-02-23T04:39:07.862Z,9.98
2023-02-23T04:41:36.954Z,8.77
2023-02-23T04:44:06.636Z,12.73
2023-02-23T04:46:35.796Z,9.15
2023-02-23T04:49:06.571Z,10.93
2023-02-23T04:51:37.051Z,8.70
2023-02-23T04:54:14.021Z,8.00
2023-02-23T04:56:44.520Z,6.47
2023-02-23T04:59:21.041Z,7.68
2023-02-23T05:01:53.127Z,6.68
2023-02-23T05:04:30.045Z,9.40
2023-02-23T05:07:03.158Z,7.50
2023-02-23T05:09:46.541Z,9.63
2023-02-23T05:13:06.082Z,7.97
2023-02-23T05:15:38.889Z,8.43
2023-02-23T05:18:20.092Z,7.80
2023-02-23T05:21:12.744Z,8.73
2023-02-23T05:24:20.763Z,11.77
2023-02-23T05:28:23.974Z,13.32
2023-02-23T09:55:56.608Z,4.95
2023-02-23T09:58:53.079Z,6.65
2023-02-23T10:28:37.833Z,19.60
2023-02-23T14:49:55.914Z,6.45
2023-02-23T14:52:26.319Z,6.47
2023-02-23T14:55:22.302Z,5.38
2023-02-23T14:57:52.673Z,5.40
2023-02-23T15:00:25.522Z,5.68
2023-02-23T15:02:57.354Z,6.80
2023-02-23T15:05:28.270Z,5.35
2023-02-23T15:08:00.670Z,5.67
2023-02-23T15:10:36.510Z,6.93
2023-02-23T15:13:11.729Z,6.72
2023-02-23T15:15:45.581Z,6.15
2023-02-23T15:18:23.514Z,6.47
2023-02-23T15:21:34.000Z,6.68
2023-02-23T15:26:38.090Z,8.10
2023-02-23T15:29:15.097Z,7.57
2023-02-23T15:31:50.347Z,7.45
2023-02-23T15:34:21.538Z,6.43
2023-02-23T15:36:55.109Z,7.85
2023-02-23T15:39:35.569Z,7.55
2023-02-23T15:42:06.553Z,6.45
2023-02-23T15:44:44.155Z,6.50
2023-02-23T15:47:19.684Z,6.70
2023-02-23T15:49:50.441Z,6.20
2023-02-23T15:52:23.441Z,6.82
2023-02-23T15:54:56.994Z,8.05
2023-02-23T15:57:33.236Z,7.55
2023-02-23T16:00:07.659Z,9.75
2023-02-23T16:02:38.093Z,10.18
2023-02-23T16:05:21.230Z,10.68
2023-02-23T16:08:05.759Z,9.05
2023-02-23T16:10:46.381Z,14.40
2023-02-23T16:13:21.526Z,22.17
2023-02-23T16:15:52.740Z,23.98
2023-02-23T16:18:27.712Z,22.50
2023-02-23T16:21:01.595Z,36.97
2023-02-23T16:23:34.375Z,35.67
2023-02-23T16:26:10.935Z,40.97
2023-02-23T16:28:46.641Z,69.07
2023-02-23T16:31:25.961Z,60.45
2023-02-23T16:33:57.577Z,75.32
2023-02-23T16:36:36.887Z,56.42
2023-02-23T16:39:12.871Z,41.80
2023-02-23T16:41:41.619Z,28.60
2023-02-23T16:44:21.737Z,37.42
2023-02-23T16:47:26.040Z,42.35
2023-02-23T16:49:54.781Z,38.42
2023-02-23T16:52:25.934Z,30.77
2023-02-23T16:54:56.001Z,28.15
2023-02-23T16:57:28.538Z,27.95
2023-02-23T16:59:58.718Z,20.58
2023-02-23T17:02:27.441Z,17.40
2023-02-23T17:04:59.188Z,17.02
2023-02-23T17:07:27.399Z,15.38
2023-02-23T17:09:55.738Z,17.48
2023-02-23T17:12:24.171Z,15.65
2023-02-23T17:14:52.545Z,14.60
2023-02-23T17:17:22.910Z,14.27
2023-02-23T17:19:51.504Z,15.07
2023-02-23T17:22:19.956Z,14.77
2023-02-23T17:24:48.819Z,13.10
2023-02-23T17:27:18.108Z,13.05
2023-02-23T17:29:48.786Z,12.30
2023-02-23T17:32:18.038Z,13.20
2023-02-23T17:34:50.293Z,11.93
2023-02-23T17:37:20.412Z,13.90
2023-02-23T17:39:49.798Z,16.40
2023-02-23T17:42:19.590Z,21.02
2023-02-23T17:44:48.785Z,17.27
2023-02-23T17:47:19.418Z,16.00
2023-02-23T17:49:49.451Z,17.27
2023-02-23T17:52:20.669Z,18.80
2023-02-23T17:54:49.165Z,17.77
2023-02-23T17:57:17.934Z,19.35
2023-02-23T17:59:46.386Z,19.92
2023-02-23T18:02:16.955Z,18.30
2023-02-23T18:04:46.121Z,18.80
2023-02-23T18:07:16.281Z,18.05
2023-02-23T18:09:45.215Z,17.80
2023-02-23T18:12:14.526Z,21.95
2023-02-23T18:14:43.502Z,21.75
2023-02-23T18:17:12.285Z,21.60
2023-02-23T18:19:40.594Z,17.08
2023-02-23T18:22:09.660Z,18.23
2023-02-23T18:24:39.738Z,13.57
2023-02-23T18:27:08.442Z,18.63
2023-02-23T18:29:37.765Z,16.75
2023-02-23T18:32:07.938Z,14.05
2023-02-23T18:34:37.691Z,13.90
2023-02-23T18:37:10.342Z,14.63
2023-02-23T18:39:40.204Z,13.38
2023-02-23T18:42:08.655Z,14.13
2023-02-23T18:44:37.156Z,14.82
2023-02-23T18:47:05.472Z,14.50
2023-02-23T18:49:33.925Z,13.57
2023-02-23T18:52:05.597Z,13.10
2023-02-23T18:54:34.801Z,14.82
2023-02-23T18:57:05.796Z,14.98
2023-02-23T18:59:34.638Z,16.50
2023-02-23T19:02:03.228Z,15.23
2023-02-23T19:04:31.728Z,15.80
2023-02-23T19:07:00.128Z,14.88
2023-02-23T19:09:28.413Z,13.20
2023-02-23T19:11:56.725Z,15.32
2023-02-23T19:14:47.841Z,15.93
2023-02-23T19:17:15.929Z,17.02
2023-02-23T19:19:44.629Z,16.52
2023-02-23T19:22:13.333Z,20.40
2023-02-23T19:24:42.003Z,21.65
2023-02-23T19:27:11.691Z,19.67
2023-02-23T19:29:41.855Z,19.33
2023-02-23T19:32:11.064Z,20.92
2023-02-23T19:34:40.532Z,23.10
2023-02-23T19:37:09.480Z,27.80
2023-02-23T19:39:38.295Z,28.25
2023-02-23T19:42:07.495Z,36.00
2023-02-23T19:44:36.526Z,41.25
2023-02-23T19:47:06.520Z,44.45
2023-02-23T19:49:34.969Z,41.88
2023-02-23T19:52:03.440Z,42.97
2023-02-23T19:54:34.173Z,40.35
2023-02-23T19:57:04.270Z,32.78
2023-02-23T19:59:32.995Z,28.85
2023-02-23T20:02:01.762Z,25.58
2023-02-23T20:04:31.829Z,22.73
2023-02-23T20:07:00.327Z,21.65
2023-02-23T20:09:31.222Z,19.55
2023-02-23T20:11:59.779Z,18.05
2023-02-23T20:14:28.529Z,15.88
2023-02-23T20:16:57.244Z,19.23
2023-02-23T20:19:25.983Z,18.65
2023-02-23T20:21:57.390Z,16.02
2023-02-23T20:24:25.843Z,15.77
2023-02-23T20:26:58.265Z,15.23
2023-02-23T20:29:28.396Z,14.40
2023-02-23T20:32:00.089Z,13.40
2023-02-23T20:34:29.257Z,11.52
2023-02-23T20:36:59.363Z,12.02
2023-02-23T20:39:27.941Z,12.15
2023-02-23T20:41:56.409Z,11.60
2023-02-23T20:44:26.508Z,11.20
2023-02-23T20:46:54.936Z,10.75
2023-02-23T20:49:25.501Z,12.00
2023-02-23T20:51:54.557Z,12.10
2023-02-23T20:54:25.665Z,12.10
2023-02-23T20:57:00.245Z,11.73
2023-02-23T20:59:32.939Z,12.70
2023-02-23T21:04:35.650Z,11.67
2023-02-23T21:07:05.594Z,11.32
2023-02-23T21:09:35.798Z,12.43
2023-02-23T21:12:05.004Z,13.45
2023-02-23T21:14:35.497Z,12.15
2023-02-23T21:17:05.512Z,13.05
2023-02-23T21:19:34.634Z,12.65
2023-02-23T21:22:03.255Z,13.85
2023-02-23T21:24:33.986Z,12.98
2023-02-23T21:27:05.599Z,13.43
2023-02-23T21:29:34.282Z,11.73
2023-02-23T21:32:03.113Z,11.60
2023-02-23T21:34:32.104Z,12.63
2023-02-23T21:37:01.177Z,11.95
2023-02-23T21:39:30.659Z,12.05
2023-02-23T21:41:59.793Z,12.07
2023-02-23T21:44:29.700Z,12.40
2023-02-23T21:46:58.155Z,11.38
2023-02-23T21:49:26.820Z,13.00
2023-02-23T21:51:57.971Z,11.80
2023-02-23T21:54:26.917Z,12.18
2023-02-23T21:56:55.410Z,13.18
2023-02-23T21:59:24.216Z,12.85
2023-02-23T22:01:54.139Z,12.98
2023-02-23T22:04:22.550Z,12.70
2023-02-23T22:06:50.953Z,12.75
2023-02-23T22:09:19.447Z,12.50
2023-02-23T22:11:48.843Z,14.25
2023-02-23T22:14:18.169Z,13.45
2023-02-23T22:16:47.907Z,13.25
2023-02-23T22:19:19.104Z,13.43
2023-02-23T22:21:49.079Z,12.80
2023-02-23T22:24:18.273Z,13.50
2023-02-23T22:26:50.693Z,13.48
2023-02-23T22:29:19.348Z,13.80
2023-02-23T22:31:47.734Z,14.10
2023-02-23T22:34:18.566Z,14.00
2023-02-23T22:36:48.551Z,12.77
2023-02-23T22:39:18.789Z,13.05
2023-02-23T22:41:48.018Z,12.85
2023-02-23T22:44:18.917Z,12.00
2023-02-23T22:46:48.438Z,12.63
2023-02-23T22:49:20.077Z,12.80
2023-02-23T22:54:17.585Z,12.10
2023-02-23T22:56:47.064Z,11.90
2023-02-23T22:59:17.702Z,12.27
2023-02-23T23:01:48.996Z,13.27
2023-02-23T23:04:22.184Z,13.07
2023-02-23T23:06:51.747Z,13.43
2023-02-23T23:09:21.292Z,13.05
2023-02-23T23:11:51.353Z,12.57
2023-02-23T23:14:20.793Z,13.73
2023-02-23T23:16:49.883Z,12.98
2023-02-23T23:19:24.385Z,13.18
2023-02-23T23:21:55.951Z,13.75
2023-02-23T23:24:26.655Z,12.93
2023-02-23T23:27:00.546Z,12.98
2023-02-23T23:29:30.600Z,13.40
2023-02-23T23:31:59.424Z,12.00
2023-02-23T23:34:33.874Z,12.30
2023-02-23T23:37:03.113Z,12.27
2023-02-23T23:39:32.374Z,12.95
2023-02-23T23:42:02.660Z,12.73
2023-02-23T23:44:34.021Z,11.65
2023-02-23T23:47:05.366Z,12.75
2023-02-23T23:49:39.220Z,13.07
2023-02-23T23:52:08.309Z,12.70
2023-02-23T23:54:39.447Z,13.10
2023-02-23T23:57:11.864Z,12.73
2023-02-23T23:59:46.480Z,13.13
